aviador You're here:

CYLW Decoded Metar

KELOWNA in BC, CANADA
Report Time2017-12-11 05:00:00
UTC Time2017-12-11 05:48:13
Flight Rules mvfr MVFR
Wind150° at 03 kt
W.Decomp.*RWY 16: 2.6 kt HW 1.4 kt LCW
W.Rank150° ranks 6
Current wind is below 150° avg. (6.1)
Visibility9999 m
Phenomena:N/A
Clouds:Overcast 024 Hf
Expected CloudBase > 1,600 ft AGL from Temp-Dew spread
Ceiling2,400 ft
Temp00°C (ISA -12)
Dew Point-4°C (75% RH)
AAT-3.6°C
QNH1037 hPa
Density Alt-817 ft
Elevation1,411 ft
Report Wrong Elevation
Raw Report
CYLW 110500Z AUTO 15003KT 9SM OVC024 M00/M04 A3062 RMK SLP393=

Extra information for CYLW:More info

Metar Taf Metar & Taf Last 4 Metars F.Rules Stats Wind Profile Meteogram Temp Stats Airport Information Weather charts Add Link Nearby VenuesMetar ALERT Operation Metar Decoded Social comments